sensor_id;sensor_type;location;lat;lon;timestamp;P1;durP1;ratioP1;P2;durP2;ratioP2
43606;SDS011;29197;44.788;10.366;2022-09-09T00:00:25;11.70;;;7.75;;
43606;SDS011;29197;44.788;10.366;2022-09-09T00:03:17;10.02;;;7.18;;
43606;SDS011;29197;44.788;10.366;2022-09-09T00:06:10;7.45;;;6.25;;
43606;SDS011;29197;44.788;10.366;2022-09-09T00:09:07;11.82;;;8.45;;
43606;SDS011;29197;44.788;10.366;2022-09-09T00:12:01;12.80;;;7.10;;
43606;SDS011;29197;44.788;10.366;2022-09-09T00:14:58;11.68;;;8.00;;
43606;SDS011;29197;44.788;10.366;2022-09-09T00:17:55;14.30;;;7.75;;
43606;SDS011;29197;44.788;10.366;2022-09-09T00:20:49;9.57;;;6.88;;
43606;SDS011;29197;44.788;10.366;2022-09-09T00:23:47;11.15;;;8.48;;
43606;SDS011;29197;44.788;10.366;2022-09-09T00:26:40;10.50;;;8.73;;
43606;SDS011;29197;44.788;10.366;2022-09-09T00:29:33;10.88;;;6.95;;
43606;SDS011;29197;44.788;10.366;2022-09-09T00:32:27;12.60;;;7.85;;
43606;SDS011;29197;44.788;10.366;2022-09-09T00:35:21;8.77;;;6.57;;
43606;SDS011;29197;44.788;10.366;2022-09-09T00:38:13;10.65;;;8.10;;
43606;SDS011;29197;44.788;10.366;2022-09-09T00:41:07;11.75;;;7.32;;
43606;SDS011;29197;44.788;10.366;2022-09-09T00:44:03;10.38;;;6.72;;
43606;SDS011;29197;44.788;10.366;2022-09-09T00:47:20;10.32;;;7.00;;
43606;SDS011;29197;44.788;10.366;2022-09-09T00:50:34;11.82;;;7.82;;
43606;SDS011;29197;44.788;10.366;2022-09-09T00:53:34;10.10;;;7.45;;
43606;SDS011;29197;44.788;10.366;2022-09-09T00:56:30;14.10;;;6.35;;
43606;SDS011;29197;44.788;10.366;2022-09-09T00:59:31;9.82;;;6.47;;
43606;SDS011;29197;44.788;10.366;2022-09-09T01:02:27;10.52;;;7.88;;
43606;SDS011;29197;44.788;10.366;2022-09-09T01:05:20;11.43;;;7.00;;
43606;SDS011;29197;44.788;10.366;2022-09-09T01:08:17;8.82;;;6.68;;
43606;SDS011;29197;44.788;10.366;2022-09-09T01:11:21;9.93;;;7.38;;
43606;SDS011;29197;44.788;10.366;2022-09-09T01:14:16;10.43;;;7.30;;
43606;SDS011;29197;44.788;10.366;2022-09-09T01:17:18;10.40;;;7.95;;
43606;SDS011;29197;44.788;10.366;2022-09-09T01:20:12;10.48;;;7.68;;
43606;SDS011;29197;44.788;10.366;2022-09-09T01:23:07;11.82;;;7.68;;
43606;SDS011;29197;44.788;10.366;2022-09-09T01:26:20;7.82;;;6.25;;
43606;SDS011;29197;44.788;10.366;2022-09-09T01:29:14;7.43;;;5.45;;
43606;SDS011;29197;44.788;10.366;2022-09-09T01:35:29;7.95;;;4.80;;
43606;SDS011;29197;44.788;10.366;2022-09-09T01:38:25;9.27;;;6.25;;
43606;SDS011;29197;44.788;10.366;2022-09-09T01:41:15;6.72;;;5.57;;
43606;SDS011;29197;44.788;10.366;2022-09-09T01:44:07;11.98;;;5.82;;
43606;SDS011;29197;44.788;10.366;2022-09-09T01:46:57;6.95;;;4.57;;
43606;SDS011;29197;44.788;10.366;2022-09-09T01:49:46;3.80;;;3.08;;
43606;SDS011;29197;44.788;10.366;2022-09-09T01:52:36;6.00;;;3.63;;
43606;SDS011;29197;44.788;10.366;2022-09-09T01:55:28;6.53;;;3.15;;
43606;SDS011;29197;44.788;10.366;2022-09-09T01:58:22;5.43;;;2.65;;
43606;SDS011;29197;44.788;10.366;2022-09-09T02:01:17;5.25;;;2.55;;
43606;SDS011;29197;44.788;10.366;2022-09-09T02:04:18;3.60;;;2.25;;
43606;SDS011;29197;44.788;10.366;2022-09-09T02:07:23;5.70;;;2.92;;
43606;SDS011;29197;44.788;10.366;2022-09-09T02:10:20;3.13;;;2.25;;
43606;SDS011;29197;44.788;10.366;2022-09-09T02:13:12;3.53;;;2.40;;
43606;SDS011;29197;44.788;10.366;2022-09-09T02:16:04;3.10;;;2.20;;
43606;SDS011;29197;44.788;10.366;2022-09-09T02:19:00;5.13;;;3.00;;
43606;SDS011;29197;44.788;10.366;2022-09-09T02:21:55;4.82;;;2.00;;
43606;SDS011;29197;44.788;10.366;2022-09-09T02:24:46;4.65;;;1.85;;
43606;SDS011;29197;44.788;10.366;2022-09-09T02:27:37;2.78;;;2.08;;
43606;SDS011;29197;44.788;10.366;2022-09-09T02:30:27;2.88;;;1.88;;
43606;SDS011;29197;44.788;10.366;2022-09-09T02:33:19;3.42;;;1.77;;
43606;SDS011;29197;44.788;10.366;2022-09-09T02:36:10;4.50;;;1.77;;
43606;SDS011;29197;44.788;10.366;2022-09-09T02:39:04;3.08;;;2.20;;
43606;SDS011;29197;44.788;10.366;2022-09-09T02:41:56;2.83;;;1.42;;
43606;SDS011;29197;44.788;10.366;2022-09-09T02:44:45;2.22;;;1.65;;
43606;SDS011;29197;44.788;10.366;2022-09-09T02:47:37;4.40;;;1.50;;
43606;SDS011;29197;44.788;10.366;2022-09-09T02:50:34;4.00;;;1.85;;
43606;SDS011;29197;44.788;10.366;2022-09-09T02:53:32;1.92;;;1.48;;
43606;SDS011;29197;44.788;10.366;2022-09-09T02:56:28;3.88;;;1.90;;
43606;SDS011;29197;44.788;10.366;2022-09-09T02:59:20;5.10;;;2.08;;
43606;SDS011;29197;44.788;10.366;2022-09-09T03:02:11;2.97;;;1.58;;
43606;SDS011;29197;44.788;10.366;2022-09-09T03:05:01;1.55;;;1.20;;
43606;SDS011;29197;44.788;10.366;2022-09-09T03:07:50;3.45;;;1.50;;
43606;SDS011;29197;44.788;10.366;2022-09-09T03:10:41;1.75;;;1.40;;
43606;SDS011;29197;44.788;10.366;2022-09-09T03:13:30;2.83;;;1.92;;
43606;SDS011;29197;44.788;10.366;2022-09-09T03:16:20;3.58;;;1.80;;
43606;SDS011;29197;44.788;10.366;2022-09-09T03:19:10;4.60;;;2.03;;
43606;SDS011;29197;44.788;10.366;2022-09-09T03:21:59;2.67;;;1.52;;
43606;SDS011;29197;44.788;10.366;2022-09-09T03:24:48;4.53;;;2.03;;
43606;SDS011;29197;44.788;10.366;2022-09-09T03:27:39;7.80;;;2.03;;
43606;SDS011;29197;44.788;10.366;2022-09-09T03:30:28;3.97;;;2.08;;
43606;SDS011;29197;44.788;10.366;2022-09-09T03:33:17;2.28;;;1.70;;
43606;SDS011;29197;44.788;10.366;2022-09-09T03:36:07;2.38;;;1.60;;
43606;SDS011;29197;44.788;10.366;2022-09-09T03:38:57;5.20;;;2.05;;
43606;SDS011;29197;44.788;10.366;2022-09-09T03:41:47;3.40;;;1.63;;
43606;SDS011;29197;44.788;10.366;2022-09-09T03:44:37;3.13;;;1.65;;
43606;SDS011;29197;44.788;10.366;2022-09-09T03:47:27;3.03;;;1.60;;
43606;SDS011;29197;44.788;10.366;2022-09-09T03:50:16;2.83;;;1.40;;
43606;SDS011;29197;44.788;10.366;2022-09-09T03:53:05;6.13;;;2.65;;
43606;SDS011;29197;44.788;10.366;2022-09-09T03:55:55;3.38;;;1.58;;
43606;SDS011;29197;44.788;10.366;2022-09-09T03:58:46;2.30;;;1.35;;
43606;SDS011;29197;44.788;10.366;2022-09-09T04:01:37;4.90;;;2.45;;
43606;SDS011;29197;44.788;10.366;2022-09-09T04:04:27;2.70;;;1.50;;
43606;SDS011;29197;44.788;10.366;2022-09-09T04:07:15;3.95;;;1.40;;
43606;SDS011;29197;44.788;10.366;2022-09-09T04:10:05;5.85;;;2.00;;
43606;SDS011;29197;44.788;10.366;2022-09-09T04:12:55;5.53;;;1.60;;
43606;SDS011;29197;44.788;10.366;2022-09-09T04:15:50;2.80;;;1.58;;
43606;SDS011;29197;44.788;10.366;2022-09-09T04:18:41;4.28;;;1.45;;
43606;SDS011;29197;44.788;10.366;2022-09-09T04:21:30;3.83;;;1.60;;
43606;SDS011;29197;44.788;10.366;2022-09-09T04:24:19;3.95;;;1.70;;
43606;SDS011;29197;44.788;10.366;2022-09-09T04:27:08;4.43;;;1.58;;
43606;SDS011;29197;44.788;10.366;2022-09-09T04:29:58;5.85;;;1.55;;
43606;SDS011;29197;44.788;10.366;2022-09-09T04:32:47;4.43;;;1.67;;
43606;SDS011;29197;44.788;10.366;2022-09-09T04:35:38;2.08;;;1.58;;
43606;SDS011;29197;44.788;10.366;2022-09-09T04:38:28;2.97;;;1.90;;
43606;SDS011;29197;44.788;10.366;2022-09-09T04:41:17;3.90;;;2.10;;
43606;SDS011;29197;44.788;10.366;2022-09-09T04:44:07;3.40;;;1.80;;
43606;SDS011;29197;44.788;10.366;2022-09-09T04:46:57;3.97;;;1.52;;
43606;SDS011;29197;44.788;10.366;2022-09-09T04:49:46;5.20;;;1.83;;
43606;SDS011;29197;44.788;10.366;2022-09-09T04:52:37;2.78;;;1.38;;
43606;SDS011;29197;44.788;10.366;2022-09-09T04:55:26;6.15;;;1.38;;
43606;SDS011;29197;44.788;10.366;2022-09-09T04:58:15;4.15;;;1.70;;
43606;SDS011;29197;44.788;10.366;2022-09-09T05:01:05;3.15;;;1.40;;
43606;SDS011;29197;44.788;10.366;2022-09-09T05:03:56;3.88;;;1.77;;
43606;SDS011;29197;44.788;10.366;2022-09-09T05:06:45;1.40;;;1.30;;
43606;SDS011;29197;44.788;10.366;2022-09-09T05:09:35;2.30;;;1.38;;
43606;SDS011;29197;44.788;10.366;2022-09-09T05:12:24;2.33;;;1.35;;
43606;SDS011;29197;44.788;10.366;2022-09-09T05:15:14;2.78;;;1.00;;
43606;SDS011;29197;44.788;10.366;2022-09-09T05:18:03;2.60;;;1.40;;
43606;SDS011;29197;44.788;10.366;2022-09-09T05:20:52;2.85;;;1.33;;
43606;SDS011;29197;44.788;10.366;2022-09-09T05:23:46;4.15;;;2.05;;
43606;SDS011;29197;44.788;10.366;2022-09-09T05:26:37;1.65;;;1.20;;
43606;SDS011;29197;44.788;10.366;2022-09-09T05:29:26;2.05;;;1.27;;
43606;SDS011;29197;44.788;10.366;2022-09-09T05:32:15;2.83;;;1.23;;
43606;SDS011;29197;44.788;10.366;2022-09-09T05:35:04;2.35;;;1.27;;
43606;SDS011;29197;44.788;10.366;2022-09-09T05:37:53;1.98;;;1.10;;
43606;SDS011;29197;44.788;10.366;2022-09-09T05:40:48;1.42;;;0.90;;
43606;SDS011;29197;44.788;10.366;2022-09-09T05:43:39;3.15;;;1.10;;
43606;SDS011;29197;44.788;10.366;2022-09-09T05:46:29;3.28;;;0.80;;
43606;SDS011;29197;44.788;10.366;2022-09-09T05:49:18;0.85;;;0.60;;
43606;SDS011;29197;44.788;10.366;2022-09-09T05:52:08;2.25;;;0.90;;
43606;SDS011;29197;44.788;10.366;2022-09-09T05:54:57;2.45;;;0.85;;
43606;SDS011;29197;44.788;10.366;2022-09-09T05:57:48;8.10;;;1.20;;
43606;SDS011;29197;44.788;10.366;2022-09-09T06:00:40;3.78;;;1.48;;
43606;SDS011;29197;44.788;10.366;2022-09-09T06:03:29;2.00;;;0.77;;
43606;SDS011;29197;44.788;10.366;2022-09-09T06:06:19;14.43;;;1.42;;
43606;SDS011;29197;44.788;10.366;2022-09-09T06:09:10;2.63;;;1.38;;
43606;SDS011;29197;44.788;10.366;2022-09-09T06:12:00;2.72;;;1.20;;
43606;SDS011;29197;44.788;10.366;2022-09-09T06:14:50;2.85;;;1.30;;
43606;SDS011;29197;44.788;10.366;2022-09-09T06:17:40;3.25;;;1.33;;
43606;SDS011;29197;44.788;10.366;2022-09-09T06:20:30;7.15;;;1.80;;
43606;SDS011;29197;44.788;10.366;2022-09-09T06:25:45;4.43;;;1.95;;
43606;SDS011;29197;44.788;10.366;2022-09-09T06:28:35;2.75;;;1.30;;
43606;SDS011;29197;44.788;10.366;2022-09-09T06:31:25;1.98;;;1.52;;
43606;SDS011;29197;44.788;10.366;2022-09-09T06:34:18;4.43;;;1.50;;
43606;SDS011;29197;44.788;10.366;2022-09-09T06:37:09;3.53;;;1.33;;
43606;SDS011;29197;44.788;10.366;2022-09-09T06:39:58;2.55;;;1.15;;
43606;SDS011;29197;44.788;10.366;2022-09-09T06:42:47;1.98;;;1.30;;
43606;SDS011;29197;44.788;10.366;2022-09-09T06:45:37;1.77;;;1.10;;
43606;SDS011;29197;44.788;10.366;2022-09-09T06:48:26;2.35;;;1.48;;
43606;SDS011;29197;44.788;10.366;2022-09-09T06:51:17;3.78;;;2.15;;
43606;SDS011;29197;44.788;10.366;2022-09-09T06:54:08;2.17;;;1.40;;
43606;SDS011;29197;44.788;10.366;2022-09-09T06:56:58;2.63;;;1.20;;
43606;SDS011;29197;44.788;10.366;2022-09-09T07:00:07;2.50;;;1.20;;
43606;SDS011;29197;44.788;10.366;2022-09-09T07:02:56;3.75;;;1.90;;
43606;SDS011;29197;44.788;10.366;2022-09-09T07:05:53;2.22;;;2.03;;
43606;SDS011;29197;44.788;10.366;2022-09-09T07:08:47;7.88;;;3.95;;
43606;SDS011;29197;44.788;10.366;2022-09-09T07:11:43;12.23;;;5.20;;
43606;SDS011;29197;44.788;10.366;2022-09-09T07:14:33;11.18;;;5.60;;
43606;SDS011;29197;44.788;10.366;2022-09-09T07:17:24;12.75;;;7.32;;
43606;SDS011;29197;44.788;10.366;2022-09-09T07:20:13;11.70;;;6.07;;
43606;SDS011;29197;44.788;10.366;2022-09-09T07:23:03;13.52;;;7.53;;
43606;SDS011;29197;44.788;10.366;2022-09-09T07:25:53;16.70;;;9.02;;
43606;SDS011;29197;44.788;10.366;2022-09-09T07:28:42;16.02;;;8.27;;
43606;SDS011;29197;44.788;10.366;2022-09-09T07:31:32;19.52;;;9.80;;
43606;SDS011;29197;44.788;10.366;2022-09-09T07:34:22;16.20;;;9.18;;
43606;SDS011;29197;44.788;10.366;2022-09-09T07:37:11;16.20;;;8.52;;
43606;SDS011;29197;44.788;10.366;2022-09-09T07:40:01;11.98;;;7.72;;
43606;SDS011;29197;44.788;10.366;2022-09-09T07:42:52;24.48;;;10.88;;
43606;SDS011;29197;44.788;10.366;2022-09-09T07:45:41;18.58;;;8.77;;
43606;SDS011;29197;44.788;10.366;2022-09-09T07:48:30;18.88;;;10.07;;
43606;SDS011;29197;44.788;10.366;2022-09-09T07:51:20;15.93;;;8.82;;
43606;SDS011;29197;44.788;10.366;2022-09-09T07:54:12;14.65;;;8.25;;
43606;SDS011;29197;44.788;10.366;2022-09-09T07:57:06;15.45;;;9.23;;
43606;SDS011;29197;44.788;10.366;2022-09-09T07:59:56;23.60;;;11.23;;
43606;SDS011;29197;44.788;10.366;2022-09-09T08:02:45;16.20;;;7.95;;
43606;SDS011;29197;44.788;10.366;2022-09-09T08:05:35;15.50;;;8.82;;
43606;SDS011;29197;44.788;10.366;2022-09-09T08:08:26;19.73;;;11.93;;
43606;SDS011;29197;44.788;10.366;2022-09-09T08:11:15;14.13;;;8.65;;
43606;SDS011;29197;44.788;10.366;2022-09-09T08:14:04;18.60;;;9.80;;
43606;SDS011;29197;44.788;10.366;2022-09-09T08:16:57;12.88;;;7.78;;
43606;SDS011;29197;44.788;10.366;2022-09-09T08:19:46;16.17;;;9.25;;
43606;SDS011;29197;44.788;10.366;2022-09-09T08:22:35;14.35;;;8.43;;
43606;SDS011;29197;44.788;10.366;2022-09-09T08:25:24;16.20;;;10.25;;
43606;SDS011;29197;44.788;10.366;2022-09-09T08:28:13;20.27;;;12.43;;
43606;SDS011;29197;44.788;10.366;2022-09-09T08:31:07;23.27;;;12.77;;
43606;SDS011;29197;44.788;10.366;2022-09-09T08:33:59;20.42;;;10.80;;
43606;SDS011;29197;44.788;10.366;2022-09-09T08:36:50;18.75;;;11.00;;
43606;SDS011;29197;44.788;10.366;2022-09-09T08:39:39;26.42;;;13.95;;
43606;SDS011;29197;44.788;10.366;2022-09-09T08:42:35;31.05;;;15.05;;
43606;SDS011;29197;44.788;10.366;2022-09-09T08:45:29;27.77;;;15.20;;
43606;SDS011;29197;44.788;10.366;2022-09-09T08:48:29;21.20;;;13.15;;
43606;SDS011;29197;44.788;10.366;2022-09-09T08:51:33;25.20;;;14.10;;
43606;SDS011;29197;44.788;10.366;2022-09-09T08:54:23;28.65;;;14.90;;
43606;SDS011;29197;44.788;10.366;2022-09-09T08:57:33;21.10;;;12.30;;
43606;SDS011;29197;44.788;10.366;2022-09-09T09:00:22;24.05;;;13.73;;
43606;SDS011;29197;44.788;10.366;2022-09-09T09:03:19;20.17;;;12.60;;
43606;SDS011;29197;44.788;10.366;2022-09-09T09:06:20;23.02;;;11.90;;
43606;SDS011;29197;44.788;10.366;2022-09-09T09:09:21;26.08;;;12.90;;
43606;SDS011;29197;44.788;10.366;2022-09-09T09:12:15;25.60;;;13.90;;
43606;SDS011;29197;44.788;10.366;2022-09-09T09:15:09;29.52;;;14.93;;
43606;SDS011;29197;44.788;10.366;2022-09-09T09:18:02;23.58;;;13.88;;
43606;SDS011;29197;44.788;10.366;2022-09-09T09:20:54;23.85;;;12.73;;
43606;SDS011;29197;44.788;10.366;2022-09-09T09:23:53;23.40;;;13.63;;
43606;SDS011;29197;44.788;10.366;2022-09-09T09:26:46;24.08;;;11.90;;
43606;SDS011;29197;44.788;10.366;2022-09-09T09:29:35;20.15;;;10.93;;
43606;SDS011;29197;44.788;10.366;2022-09-09T09:32:47;21.42;;;12.35;;
43606;SDS011;29197;44.788;10.366;2022-09-09T09:35:40;24.75;;;13.07;;
43606;SDS011;29197;44.788;10.366;2022-09-09T09:38:30;18.23;;;11.80;;
43606;SDS011;29197;44.788;10.366;2022-09-09T09:41:39;15.68;;;10.00;;
43606;SDS011;29197;44.788;10.366;2022-09-09T09:44:32;18.27;;;11.10;;
43606;SDS011;29197;44.788;10.366;2022-09-09T09:47:23;20.75;;;11.98;;
43606;SDS011;29197;44.788;10.366;2022-09-09T09:50:17;19.20;;;11.05;;
43606;SDS011;29197;44.788;10.366;2022-09-09T09:53:17;14.32;;;9.82;;
43606;SDS011;29197;44.788;10.366;2022-09-09T09:56:09;16.45;;;9.52;;
43606;SDS011;29197;44.788;10.366;2022-09-09T09:59:01;14.73;;;8.13;;
43606;SDS011;29197;44.788;10.366;2022-09-09T10:02:18;12.70;;;7.28;;
43606;SDS011;29197;44.788;10.366;2022-09-09T10:05:15;11.32;;;6.30;;
43606;SDS011;29197;44.788;10.366;2022-09-09T10:08:10;11.65;;;6.47;;
43606;SDS011;29197;44.788;10.366;2022-09-09T10:11:15;13.05;;;7.53;;
43606;SDS011;29197;44.788;10.366;2022-09-09T10:14:11;11.63;;;6.50;;
43606;SDS011;29197;44.788;10.366;2022-09-09T10:17:10;8.30;;;5.78;;
43606;SDS011;29197;44.788;10.366;2022-09-09T10:20:13;16.67;;;8.15;;
43606;SDS011;29197;44.788;10.366;2022-09-09T10:23:11;15.50;;;8.38;;
43606;SDS011;29197;44.788;10.366;2022-09-09T10:26:22;13.15;;;7.80;;
43606;SDS011;29197;44.788;10.366;2022-09-09T10:29:29;13.50;;;8.18;;
43606;SDS011;29197;44.788;10.366;2022-09-09T10:32:40;8.82;;;6.50;;
43606;SDS011;29197;44.788;10.366;2022-09-09T10:35:34;16.58;;;10.32;;
43606;SDS011;29197;44.788;10.366;2022-09-09T10:38:29;18.70;;;10.55;;
43606;SDS011;29197;44.788;10.366;2022-09-09T10:41:25;16.23;;;9.63;;
43606;SDS011;29197;44.788;10.366;2022-09-09T10:44:34;14.55;;;9.10;;
43606;SDS011;29197;44.788;10.366;2022-09-09T10:47:53;13.75;;;6.65;;
43606;SDS011;29197;44.788;10.366;2022-09-09T10:50:57;9.40;;;6.93;;
43606;SDS011;29197;44.788;10.366;2022-09-09T10:54:02;8.23;;;5.53;;
43606;SDS011;29197;44.788;10.366;2022-09-09T10:57:01;8.50;;;4.82;;
43606;SDS011;29197;44.788;10.366;2022-09-09T10:59:56;9.75;;;4.05;;
43606;SDS011;29197;44.788;10.366;2022-09-09T11:02:51;7.32;;;4.50;;
43606;SDS011;29197;44.788;10.366;2022-09-09T11:05:44;8.95;;;3.78;;
43606;SDS011;29197;44.788;10.366;2022-09-09T11:08:37;9.15;;;4.00;;
43606;SDS011;29197;44.788;10.366;2022-09-09T11:11:29;7.40;;;4.07;;
43606;SDS011;29197;44.788;10.366;2022-09-09T11:14:24;8.18;;;4.55;;
43606;SDS011;29197;44.788;10.366;2022-09-09T11:17:23;4.13;;;2.70;;
43606;SDS011;29197;44.788;10.366;2022-09-09T11:20:16;6.07;;;2.75;;
43606;SDS011;29197;44.788;10.366;2022-09-09T11:23:09;4.03;;;2.50;;
43606;SDS011;29197;44.788;10.366;2022-09-09T11:26:02;4.20;;;2.03;;
43606;SDS011;29197;44.788;10.366;2022-09-09T11:28:57;5.70;;;2.28;;
43606;SDS011;29197;44.788;10.366;2022-09-09T11:32:06;4.90;;;2.97;;
43606;SDS011;29197;44.788;10.366;2022-09-09T11:35:09;6.05;;;3.15;;
43606;SDS011;29197;44.788;10.366;2022-09-09T11:38:21;4.80;;;2.22;;
43606;SDS011;29197;44.788;10.366;2022-09-09T11:41:14;3.17;;;1.80;;
43606;SDS011;29197;44.788;10.366;2022-09-09T11:44:09;5.15;;;2.10;;
43606;SDS011;29197;44.788;10.366;2022-09-09T11:47:00;4.28;;;2.10;;
43606;SDS011;29197;44.788;10.366;2022-09-09T11:49:49;6.10;;;2.55;;
43606;SDS011;29197;44.788;10.366;2022-09-09T11:52:41;4.93;;;1.90;;
43606;SDS011;29197;44.788;10.366;2022-09-09T11:55:33;4.40;;;1.70;;
43606;SDS011;29197;44.788;10.366;2022-09-09T11:58:23;2.75;;;1.50;;
43606;SDS011;29197;44.788;10.366;2022-09-09T12:01:13;2.80;;;1.27;;
43606;SDS011;29197;44.788;10.366;2022-09-09T12:04:26;3.17;;;2.25;;
43606;SDS011;29197;44.788;10.366;2022-09-09T12:07:23;2.30;;;1.42;;
43606;SDS011;29197;44.788;10.366;2022-09-09T12:10:22;6.05;;;1.83;;
43606;SDS011;29197;44.788;10.366;2022-09-09T12:13:15;1.10;;;0.93;;
43606;SDS011;29197;44.788;10.366;2022-09-09T12:16:06;1.85;;;1.20;;
43606;SDS011;29197;44.788;10.366;2022-09-09T12:19:16;3.35;;;1.50;;
43606;SDS011;29197;44.788;10.366;2022-09-09T12:22:15;1.73;;;1.10;;
43606;SDS011;29197;44.788;10.366;2022-09-09T12:25:07;4.30;;;1.65;;
43606;SDS011;29197;44.788;10.366;2022-09-09T12:28:03;2.58;;;1.10;;
43606;SDS011;29197;44.788;10.366;2022-09-09T12:30:55;2.65;;;1.13;;
43606;SDS011;29197;44.788;10.366;2022-09-09T12:33:46;4.18;;;1.67;;
43606;SDS011;29197;44.788;10.366;2022-09-09T12:36:35;3.65;;;1.38;;
43606;SDS011;29197;44.788;10.366;2022-09-09T12:39:33;2.78;;;1.00;;
43606;SDS011;29197;44.788;10.366;2022-09-09T12:42:26;1.73;;;0.82;;
43606;SDS011;29197;44.788;10.366;2022-09-09T12:45:17;1.77;;;1.10;;
43606;SDS011;29197;44.788;10.366;2022-09-09T12:48:08;1.90;;;1.00;;
43606;SDS011;29197;44.788;10.366;2022-09-09T12:51:02;3.50;;;1.20;;
43606;SDS011;29197;44.788;10.366;2022-09-09T12:53:53;2.78;;;0.90;;
43606;SDS011;29197;44.788;10.366;2022-09-09T12:56:44;2.20;;;1.00;;
43606;SDS011;29197;44.788;10.366;2022-09-09T12:59:36;2.67;;;0.90;;
43606;SDS011;29197;44.788;10.366;2022-09-09T13:02:28;2.90;;;1.33;;
43606;SDS011;29197;44.788;10.366;2022-09-09T13:05:19;2.80;;;1.15;;
43606;SDS011;29197;44.788;10.366;2022-09-09T13:08:09;2.65;;;1.15;;
43606;SDS011;29197;44.788;10.366;2022-09-09T13:11:00;4.03;;;1.10;;
43606;SDS011;29197;44.788;10.366;2022-09-09T13:13:52;1.65;;;0.90;;
43606;SDS011;29197;44.788;10.366;2022-09-09T13:16:42;4.10;;;1.52;;
43606;SDS011;29197;44.788;10.366;2022-09-09T13:19:43;3.72;;;1.85;;
43606;SDS011;29197;44.788;10.366;2022-09-09T13:22:34;2.88;;;1.10;;
43606;SDS011;29197;44.788;10.366;2022-09-09T13:25:25;2.97;;;1.15;;
43606;SDS011;29197;44.788;10.366;2022-09-09T13:28:20;2.83;;;1.10;;
43606;SDS011;29197;44.788;10.366;2022-09-09T13:31:19;3.35;;;1.15;;
43606;SDS011;29197;44.788;10.366;2022-09-09T13:34:12;1.90;;;1.02;;
43606;SDS011;29197;44.788;10.366;2022-09-09T13:37:06;7.45;;;1.40;;
43606;SDS011;29197;44.788;10.366;2022-09-09T13:39:56;3.10;;;1.08;;
43606;SDS011;29197;44.788;10.366;2022-09-09T13:42:45;2.03;;;0.93;;
43606;SDS011;29197;44.788;10.366;2022-09-09T13:45:33;2.58;;;0.90;;
43606;SDS011;29197;44.788;10.366;2022-09-09T13:48:24;2.63;;;0.98;;
43606;SDS011;29197;44.788;10.366;2022-09-09T13:51:24;1.08;;;0.65;;
43606;SDS011;29197;44.788;10.366;2022-09-09T13:54:16;2.13;;;0.88;;
43606;SDS011;29197;44.788;10.366;2022-09-09T13:57:13;6.47;;;1.20;;
43606;SDS011;29197;44.788;10.366;2022-09-09T14:00:05;1.40;;;0.85;;
43606;SDS011;29197;44.788;10.366;2022-09-09T14:02:55;4.47;;;1.20;;
43606;SDS011;29197;44.788;10.366;2022-09-09T14:05:44;1.92;;;0.95;;
43606;SDS011;29197;44.788;10.366;2022-09-09T14:08:34;2.08;;;1.05;;
43606;SDS011;29197;44.788;10.366;2022-09-09T14:11:25;3.92;;;0.90;;
43606;SDS011;29197;44.788;10.366;2022-09-09T14:14:15;2.45;;;0.80;;
43606;SDS011;29197;44.788;10.366;2022-09-09T14:17:03;2.08;;;0.90;;
43606;SDS011;29197;44.788;10.366;2022-09-09T14:19:53;3.50;;;1.77;;
43606;SDS011;29197;44.788;10.366;2022-09-09T14:22:42;2.65;;;1.00;;
43606;SDS011;29197;44.788;10.366;2022-09-09T14:25:32;3.53;;;1.05;;
43606;SDS011;29197;44.788;10.366;2022-09-09T14:28:22;1.77;;;0.90;;
43606;SDS011;29197;44.788;10.366;2022-09-09T14:31:32;1.25;;;0.82;;
43606;SDS011;29197;44.788;10.366;2022-09-09T14:34:20;1.88;;;1.10;;
43606;SDS011;29197;44.788;10.366;2022-09-09T14:37:09;4.78;;;1.38;;
43606;SDS011;29197;44.788;10.366;2022-09-09T14:39:58;3.30;;;1.17;;
43606;SDS011;29197;44.788;10.366;2022-09-09T14:42:47;1.85;;;1.10;;
43606;SDS011;29197;44.788;10.366;2022-09-09T14:45:37;2.58;;;1.38;;
43606;SDS011;29197;44.788;10.366;2022-09-09T14:48:25;4.18;;;1.08;;
43606;SDS011;29197;44.788;10.366;2022-09-09T14:51:14;3.30;;;1.30;;
43606;SDS011;29197;44.788;10.366;2022-09-09T14:54:04;3.75;;;1.27;;
43606;SDS011;29197;44.788;10.366;2022-09-09T14:56:53;1.77;;;1.00;;
43606;SDS011;29197;44.788;10.366;2022-09-09T14:59:42;2.00;;;0.82;;
43606;SDS011;29197;44.788;10.366;2022-09-09T15:02:33;2.95;;;0.93;;
43606;SDS011;29197;44.788;10.366;2022-09-09T15:05:23;2.97;;;0.70;;
43606;SDS011;29197;44.788;10.366;2022-09-09T15:08:13;2.55;;;1.15;;
43606;SDS011;29197;44.788;10.366;2022-09-09T15:11:05;2.42;;;0.90;;
43606;SDS011;29197;44.788;10.366;2022-09-09T15:13:55;1.73;;;0.80;;
43606;SDS011;29197;44.788;10.366;2022-09-09T15:16:45;3.33;;;1.08;;
43606;SDS011;29197;44.788;10.366;2022-09-09T15:19:36;4.82;;;1.15;;
43606;SDS011;29197;44.788;10.366;2022-09-09T15:22:24;6.22;;;1.17;;
43606;SDS011;29197;44.788;10.366;2022-09-09T15:39:42;5.75;;;1.85;;
43606;SDS011;29197;44.788;10.366;2022-09-09T15:42:31;6.35;;;1.42;;
43606;SDS011;29197;44.788;10.366;2022-09-09T15:45:21;3.17;;;1.02;;
43606;SDS011;29197;44.788;10.366;2022-09-09T15:48:10;2.53;;;1.02;;
43606;SDS011;29197;44.788;10.366;2022-09-09T15:51:01;2.80;;;1.20;;
43606;SDS011;29197;44.788;10.366;2022-09-09T15:54:10;4.25;;;1.15;;
43606;SDS011;29197;44.788;10.366;2022-09-09T15:57:03;3.50;;;1.13;;
43606;SDS011;29197;44.788;10.366;2022-09-09T15:59:53;3.03;;;1.15;;
43606;SDS011;29197;44.788;10.366;2022-09-09T16:02:42;0.85;;;0.80;;
43606;SDS011;29197;44.788;10.366;2022-09-09T16:05:32;3.40;;;1.10;;
43606;SDS011;29197;44.788;10.366;2022-09-09T16:08:21;3.13;;;1.20;;
43606;SDS011;29197;44.788;10.366;2022-09-09T16:11:11;4.43;;;1.42;;
43606;SDS011;29197;44.788;10.366;2022-09-09T16:14:03;4.35;;;1.55;;
43606;SDS011;29197;44.788;10.366;2022-09-09T16:16:53;7.90;;;1.67;;
43606;SDS011;29197;44.788;10.366;2022-09-09T16:19:45;5.88;;;1.70;;
43606;SDS011;29197;44.788;10.366;2022-09-09T16:22:34;2.92;;;1.50;;
43606;SDS011;29197;44.788;10.366;2022-09-09T16:25:23;5.03;;;2.38;;
43606;SDS011;29197;44.788;10.366;2022-09-09T16:28:13;3.05;;;2.17;;
43606;SDS011;29197;44.788;10.366;2022-09-09T16:31:05;5.15;;;1.95;;
43606;SDS011;29197;44.788;10.366;2022-09-09T16:33:55;7.00;;;2.10;;
43606;SDS011;29197;44.788;10.366;2022-09-09T16:36:44;4.75;;;2.17;;
43606;SDS011;29197;44.788;10.366;2022-09-09T16:39:35;8.32;;;2.35;;
43606;SDS011;29197;44.788;10.366;2022-09-09T16:42:25;6.50;;;1.95;;
43606;SDS011;29197;44.788;10.366;2022-09-09T16:45:14;4.05;;;2.00;;
43606;SDS011;29197;44.788;10.366;2022-09-09T16:48:05;6.00;;;2.30;;
43606;SDS011;29197;44.788;10.366;2022-09-09T16:51:00;4.47;;;2.30;;
43606;SDS011;29197;44.788;10.366;2022-09-09T16:53:51;4.95;;;2.15;;
43606;SDS011;29197;44.788;10.366;2022-09-09T16:56:41;3.53;;;2.00;;
43606;SDS011;29197;44.788;10.366;2022-09-09T16:59:30;2.58;;;1.77;;
43606;SDS011;29197;44.788;10.366;2022-09-09T17:02:20;7.75;;;2.30;;
43606;SDS011;29197;44.788;10.366;2022-09-09T17:05:11;7.63;;;2.20;;
43606;SDS011;29197;44.788;10.366;2022-09-09T17:08:01;5.43;;;2.17;;
43606;SDS011;29197;44.788;10.366;2022-09-09T17:10:52;6.30;;;1.70;;
43606;SDS011;29197;44.788;10.366;2022-09-09T17:13:41;4.60;;;2.05;;
43606;SDS011;29197;44.788;10.366;2022-09-09T17:16:31;4.55;;;1.77;;
43606;SDS011;29197;44.788;10.366;2022-09-09T17:19:22;6.85;;;2.13;;